sensor_id;sensor_type;location;lat;lon;timestamp;P1;durP1;ratioP1;P2;durP2;ratioP2
40152;SDS011;26371;56.992;23.912;2023-11-21T00:01:33;22.70;;;10.68;;
40152;SDS011;26371;56.992;23.912;2023-11-21T00:04:02;24.15;;;10.98;;
40152;SDS011;26371;56.992;23.912;2023-11-21T00:06:34;23.80;;;11.23;;
40152;SDS011;26371;56.992;23.912;2023-11-21T00:09:04;19.88;;;10.15;;
40152;SDS011;26371;56.992;23.912;2023-11-21T00:11:35;23.48;;;10.98;;
40152;SDS011;26371;56.992;23.912;2023-11-21T00:14:05;21.30;;;9.38;;
40152;SDS011;26371;56.992;23.912;2023-11-21T00:16:35;17.55;;;9.30;;
40152;SDS011;26371;56.992;23.912;2023-11-21T00:19:03;16.70;;;9.15;;
40152;SDS011;26371;56.992;23.912;2023-11-21T00:21:32;24.45;;;10.02;;
40152;SDS011;26371;56.992;23.912;2023-11-21T00:24:01;20.50;;;9.73;;
40152;SDS011;26371;56.992;23.912;2023-11-21T00:26:31;19.75;;;9.50;;
40152;SDS011;26371;56.992;23.912;2023-11-21T00:29:04;16.08;;;9.20;;
40152;SDS011;26371;56.992;23.912;2023-11-21T00:31:34;18.52;;;9.30;;
40152;SDS011;26371;56.992;23.912;2023-11-21T00:34:04;16.90;;;8.77;;
40152;SDS011;26371;56.992;23.912;2023-11-21T00:36:33;17.67;;;8.48;;
40152;SDS011;26371;56.992;23.912;2023-11-21T00:39:02;19.27;;;9.18;;
40152;SDS011;26371;56.992;23.912;2023-11-21T00:41:35;22.85;;;9.82;;
40152;SDS011;26371;56.992;23.912;2023-11-21T00:44:04;19.42;;;9.98;;
40152;SDS011;26371;56.992;23.912;2023-11-21T00:46:33;17.63;;;9.02;;
40152;SDS011;26371;56.992;23.912;2023-11-21T00:49:02;17.67;;;9.05;;
40152;SDS011;26371;56.992;23.912;2023-11-21T00:51:31;18.13;;;8.73;;
40152;SDS011;26371;56.992;23.912;2023-11-21T00:54:00;17.67;;;8.95;;
40152;SDS011;26371;56.992;23.912;2023-11-21T00:56:29;17.98;;;8.77;;
40152;SDS011;26371;56.992;23.912;2023-11-21T00:58:59;17.23;;;9.38;;
40152;SDS011;26371;56.992;23.912;2023-11-21T01:01:31;17.10;;;9.07;;
40152;SDS011;26371;56.992;23.912;2023-11-21T01:04:00;18.20;;;9.05;;
40152;SDS011;26371;56.992;23.912;2023-11-21T01:06:29;18.42;;;8.95;;
40152;SDS011;26371;56.992;23.912;2023-11-21T01:08:58;16.88;;;8.57;;
40152;SDS011;26371;56.992;23.912;2023-11-21T01:11:26;15.70;;;8.45;;
40152;SDS011;26371;56.992;23.912;2023-11-21T01:13:55;19.05;;;8.32;;
40152;SDS011;26371;56.992;23.912;2023-11-21T01:16:25;18.75;;;8.45;;
40152;SDS011;26371;56.992;23.912;2023-11-21T01:18:55;16.63;;;9.40;;
40152;SDS011;26371;56.992;23.912;2023-11-21T01:21:24;17.73;;;8.27;;
40152;SDS011;26371;56.992;23.912;2023-11-21T01:23:52;19.67;;;9.82;;
40152;SDS011;26371;56.992;23.912;2023-11-21T01:26:21;17.52;;;8.65;;
40152;SDS011;26371;56.992;23.912;2023-11-21T01:28:50;18.13;;;9.30;;
40152;SDS011;26371;56.992;23.912;2023-11-21T01:31:19;17.90;;;8.47;;
40152;SDS011;26371;56.992;23.912;2023-11-21T01:33:49;17.23;;;9.40;;
40152;SDS011;26371;56.992;23.912;2023-11-21T01:36:18;18.27;;;9.75;;
40152;SDS011;26371;56.992;23.912;2023-11-21T01:38:47;17.25;;;8.23;;
40152;SDS011;26371;56.992;23.912;2023-11-21T01:41:16;17.15;;;9.07;;
40152;SDS011;26371;56.992;23.912;2023-11-21T01:43:47;20.52;;;9.95;;
40152;SDS011;26371;56.992;23.912;2023-11-21T01:46:15;20.90;;;10.38;;
40152;SDS011;26371;56.992;23.912;2023-11-21T01:48:44;18.23;;;9.23;;
40152;SDS011;26371;56.992;23.912;2023-11-21T01:51:16;21.40;;;9.75;;
40152;SDS011;26371;56.992;23.912;2023-11-21T01:53:45;21.23;;;10.32;;
40152;SDS011;26371;56.992;23.912;2023-11-21T01:56:16;21.25;;;9.85;;
40152;SDS011;26371;56.992;23.912;2023-11-21T01:58:45;21.15;;;9.93;;
40152;SDS011;26371;56.992;23.912;2023-11-21T02:03:46;19.48;;;9.90;;
40152;SDS011;26371;56.992;23.912;2023-11-21T02:06:16;21.73;;;9.73;;
40152;SDS011;26371;56.992;23.912;2023-11-21T02:08:45;19.52;;;9.65;;
40152;SDS011;26371;56.992;23.912;2023-11-21T02:11:14;23.00;;;9.43;;
40152;SDS011;26371;56.992;23.912;2023-11-21T02:13:42;19.10;;;8.57;;
40152;SDS011;26371;56.992;23.912;2023-11-21T02:16:12;17.60;;;9.45;;
40152;SDS011;26371;56.992;23.912;2023-11-21T02:18:41;20.70;;;9.80;;
40152;SDS011;26371;56.992;23.912;2023-11-21T02:21:10;19.80;;;10.33;;
40152;SDS011;26371;56.992;23.912;2023-11-21T02:23:41;17.02;;;9.45;;
40152;SDS011;26371;56.992;23.912;2023-11-21T02:26:12;16.25;;;8.25;;
40152;SDS011;26371;56.992;23.912;2023-11-21T02:28:40;21.30;;;10.03;;
40152;SDS011;26371;56.992;23.912;2023-11-21T02:31:09;16.10;;;8.57;;
40152;SDS011;26371;56.992;23.912;2023-11-21T02:33:39;22.15;;;9.32;;
40152;SDS011;26371;56.992;23.912;2023-11-21T02:36:08;13.57;;;7.45;;
40152;SDS011;26371;56.992;23.912;2023-11-21T02:38:38;20.75;;;9.15;;
40152;SDS011;26371;56.992;23.912;2023-11-21T02:41:08;15.35;;;7.78;;
40152;SDS011;26371;56.992;23.912;2023-11-21T02:43:37;16.13;;;8.40;;
40152;SDS011;26371;56.992;23.912;2023-11-21T02:46:06;16.77;;;8.55;;
40152;SDS011;26371;56.992;23.912;2023-11-21T02:48:38;17.27;;;8.82;;
40152;SDS011;26371;56.992;23.912;2023-11-21T02:51:07;18.25;;;9.25;;
40152;SDS011;26371;56.992;23.912;2023-11-21T02:53:36;21.35;;;9.30;;
40152;SDS011;26371;56.992;23.912;2023-11-21T02:56:08;18.25;;;8.55;;
40152;SDS011;26371;56.992;23.912;2023-11-21T02:58:37;16.65;;;8.55;;
40152;SDS011;26371;56.992;23.912;2023-11-21T03:01:06;17.77;;;9.18;;
40152;SDS011;26371;56.992;23.912;2023-11-21T03:03:34;21.47;;;9.07;;
40152;SDS011;26371;56.992;23.912;2023-11-21T03:06:07;19.02;;;9.05;;
40152;SDS011;26371;56.992;23.912;2023-11-21T03:08:36;16.65;;;8.63;;
40152;SDS011;26371;56.992;23.912;2023-11-21T03:11:05;15.20;;;8.70;;
40152;SDS011;26371;56.992;23.912;2023-11-21T03:13:35;18.30;;;8.23;;
40152;SDS011;26371;56.992;23.912;2023-11-21T03:16:04;14.13;;;7.20;;
40152;SDS011;26371;56.992;23.912;2023-11-21T03:18:33;16.63;;;7.20;;
40152;SDS011;26371;56.992;23.912;2023-11-21T03:21:03;13.70;;;6.80;;
40152;SDS011;26371;56.992;23.912;2023-11-21T03:23:32;16.13;;;7.65;;
40152;SDS011;26371;56.992;23.912;2023-11-21T03:26:02;16.27;;;7.65;;
40152;SDS011;26371;56.992;23.912;2023-11-21T03:28:31;13.95;;;6.32;;
40152;SDS011;26371;56.992;23.912;2023-11-21T03:31:01;13.73;;;6.22;;
40152;SDS011;26371;56.992;23.912;2023-11-21T03:33:30;13.40;;;6.55;;
40152;SDS011;26371;56.992;23.912;2023-11-21T03:35:59;13.50;;;6.43;;
40152;SDS011;26371;56.992;23.912;2023-11-21T03:38:27;15.95;;;7.03;;
40152;SDS011;26371;56.992;23.912;2023-11-21T03:40:56;13.75;;;7.05;;
40152;SDS011;26371;56.992;23.912;2023-11-21T03:43:27;14.23;;;6.47;;
40152;SDS011;26371;56.992;23.912;2023-11-21T03:45:56;13.93;;;6.40;;
40152;SDS011;26371;56.992;23.912;2023-11-21T03:48:26;13.52;;;6.63;;
40152;SDS011;26371;56.992;23.912;2023-11-21T03:50:55;13.85;;;6.43;;
40152;SDS011;26371;56.992;23.912;2023-11-21T03:53:24;15.35;;;6.35;;
40152;SDS011;26371;56.992;23.912;2023-11-21T03:55:53;12.07;;;6.70;;
40152;SDS011;26371;56.992;23.912;2023-11-21T03:58:21;13.55;;;6.13;;
40152;SDS011;26371;56.992;23.912;2023-11-21T04:00:50;12.77;;;6.20;;
40152;SDS011;26371;56.992;23.912;2023-11-21T04:03:19;14.40;;;7.03;;
40152;SDS011;26371;56.992;23.912;2023-11-21T04:05:49;11.48;;;6.05;;
40152;SDS011;26371;56.992;23.912;2023-11-21T04:08:18;12.05;;;5.82;;
40152;SDS011;26371;56.992;23.912;2023-11-21T04:10:46;10.30;;;5.85;;
40152;SDS011;26371;56.992;23.912;2023-11-21T04:13:15;11.95;;;5.88;;
40152;SDS011;26371;56.992;23.912;2023-11-21T04:15:44;9.70;;;5.13;;
40152;SDS011;26371;56.992;23.912;2023-11-21T04:18:13;14.00;;;6.90;;
40152;SDS011;26371;56.992;23.912;2023-11-21T04:20:41;11.35;;;5.70;;
40152;SDS011;26371;56.992;23.912;2023-11-21T04:23:11;12.38;;;5.88;;
40152;SDS011;26371;56.992;23.912;2023-11-21T04:25:40;10.63;;;5.57;;
40152;SDS011;26371;56.992;23.912;2023-11-21T04:28:09;11.25;;;5.70;;
40152;SDS011;26371;56.992;23.912;2023-11-21T04:30:38;9.25;;;4.63;;
40152;SDS011;26371;56.992;23.912;2023-11-21T04:33:07;12.45;;;6.00;;
40152;SDS011;26371;56.992;23.912;2023-11-21T04:35:36;9.88;;;5.20;;
40152;SDS011;26371;56.992;23.912;2023-11-21T04:38:05;11.50;;;5.13;;
40152;SDS011;26371;56.992;23.912;2023-11-21T04:40:35;12.57;;;6.13;;
40152;SDS011;26371;56.992;23.912;2023-11-21T04:43:03;12.23;;;5.22;;
40152;SDS011;26371;56.992;23.912;2023-11-21T04:45:32;11.33;;;5.63;;
40152;SDS011;26371;56.992;23.912;2023-11-21T04:48:01;10.40;;;5.22;;
40152;SDS011;26371;56.992;23.912;2023-11-21T04:50:30;12.90;;;5.70;;
40152;SDS011;26371;56.992;23.912;2023-11-21T04:52:59;12.38;;;5.63;;
40152;SDS011;26371;56.992;23.912;2023-11-21T04:55:28;9.83;;;4.90;;
40152;SDS011;26371;56.992;23.912;2023-11-21T04:57:58;11.52;;;5.25;;
40152;SDS011;26371;56.992;23.912;2023-11-21T05:00:27;10.48;;;5.18;;
40152;SDS011;26371;56.992;23.912;2023-11-21T05:02:55;9.70;;;4.85;;
40152;SDS011;26371;56.992;23.912;2023-11-21T05:05:24;11.47;;;5.20;;
40152;SDS011;26371;56.992;23.912;2023-11-21T05:07:53;10.40;;;5.13;;
40152;SDS011;26371;56.992;23.912;2023-11-21T05:10:22;11.35;;;5.15;;
40152;SDS011;26371;56.992;23.912;2023-11-21T05:12:50;10.80;;;5.50;;
40152;SDS011;26371;56.992;23.912;2023-11-21T05:15:21;13.05;;;5.70;;
40152;SDS011;26371;56.992;23.912;2023-11-21T05:17:50;12.23;;;5.13;;
40152;SDS011;26371;56.992;23.912;2023-11-21T05:20:19;12.70;;;5.68;;
40152;SDS011;26371;56.992;23.912;2023-11-21T05:22:48;11.93;;;5.20;;
40152;SDS011;26371;56.992;23.912;2023-11-21T05:25:17;11.98;;;5.35;;
40152;SDS011;26371;56.992;23.912;2023-11-21T05:27:46;10.80;;;5.53;;
40152;SDS011;26371;56.992;23.912;2023-11-21T05:30:15;9.15;;;4.93;;
40152;SDS011;26371;56.992;23.912;2023-11-21T05:32:45;10.45;;;4.97;;
40152;SDS011;26371;56.992;23.912;2023-11-21T05:35:16;11.27;;;5.50;;
40152;SDS011;26371;56.992;23.912;2023-11-21T05:37:45;11.50;;;5.23;;
40152;SDS011;26371;56.992;23.912;2023-11-21T05:40:14;13.60;;;5.93;;
40152;SDS011;26371;56.992;23.912;2023-11-21T05:42:43;12.30;;;5.40;;
40152;SDS011;26371;56.992;23.912;2023-11-21T05:45:12;13.63;;;6.53;;
40152;SDS011;26371;56.992;23.912;2023-11-21T05:47:43;12.25;;;5.78;;
40152;SDS011;26371;56.992;23.912;2023-11-21T05:50:15;12.05;;;5.30;;
40152;SDS011;26371;56.992;23.912;2023-11-21T05:52:46;13.60;;;5.30;;
40152;SDS011;26371;56.992;23.912;2023-11-21T05:55:15;14.35;;;5.65;;
40152;SDS011;26371;56.992;23.912;2023-11-21T05:57:44;12.73;;;5.95;;
40152;SDS011;26371;56.992;23.912;2023-11-21T06:00:14;9.87;;;5.07;;
40152;SDS011;26371;56.992;23.912;2023-11-21T06:02:48;12.13;;;5.63;;
40152;SDS011;26371;56.992;23.912;2023-11-21T06:05:22;14.65;;;6.25;;
40152;SDS011;26371;56.992;23.912;2023-11-21T06:07:53;13.40;;;6.18;;
40152;SDS011;26371;56.992;23.912;2023-11-21T06:10:23;14.77;;;6.05;;
40152;SDS011;26371;56.992;23.912;2023-11-21T06:12:52;11.80;;;5.20;;
40152;SDS011;26371;56.992;23.912;2023-11-21T06:15:21;10.73;;;4.60;;
40152;SDS011;26371;56.992;23.912;2023-11-21T06:17:50;10.18;;;4.82;;
40152;SDS011;26371;56.992;23.912;2023-11-21T06:20:21;9.05;;;4.47;;
40152;SDS011;26371;56.992;23.912;2023-11-21T06:22:50;8.77;;;4.63;;
40152;SDS011;26371;56.992;23.912;2023-11-21T06:25:19;10.97;;;4.97;;
40152;SDS011;26371;56.992;23.912;2023-11-21T06:27:50;10.50;;;4.72;;
40152;SDS011;26371;56.992;23.912;2023-11-21T06:30:20;10.77;;;4.72;;
40152;SDS011;26371;56.992;23.912;2023-11-21T06:32:50;9.23;;;4.63;;
40152;SDS011;26371;56.992;23.912;2023-11-21T06:35:20;10.98;;;5.13;;
40152;SDS011;26371;56.992;23.912;2023-11-21T06:37:50;11.18;;;5.65;;
40152;SDS011;26371;56.992;23.912;2023-11-21T06:40:19;11.20;;;5.27;;
40152;SDS011;26371;56.992;23.912;2023-11-21T06:42:48;12.50;;;5.03;;
40152;SDS011;26371;56.992;23.912;2023-11-21T06:45:17;10.38;;;5.07;;
40152;SDS011;26371;56.992;23.912;2023-11-21T06:47:47;9.57;;;4.60;;
40152;SDS011;26371;56.992;23.912;2023-11-21T06:50:17;9.27;;;4.38;;
40152;SDS011;26371;56.992;23.912;2023-11-21T06:52:47;9.17;;;4.33;;
40152;SDS011;26371;56.992;23.912;2023-11-21T06:55:16;9.82;;;4.82;;
40152;SDS011;26371;56.992;23.912;2023-11-21T06:57:45;10.73;;;4.50;;
40152;SDS011;26371;56.992;23.912;2023-11-21T07:00:15;12.57;;;5.20;;
40152;SDS011;26371;56.992;23.912;2023-11-21T07:02:45;10.27;;;5.07;;
40152;SDS011;26371;56.992;23.912;2023-11-21T07:05:14;13.13;;;5.28;;
40152;SDS011;26371;56.992;23.912;2023-11-21T07:07:49;12.07;;;5.50;;
40152;SDS011;26371;56.992;23.912;2023-11-21T07:10:19;12.05;;;6.57;;
40152;SDS011;26371;56.992;23.912;2023-11-21T07:12:48;13.10;;;6.53;;
40152;SDS011;26371;56.992;23.912;2023-11-21T07:17:49;10.65;;;5.22;;
40152;SDS011;26371;56.992;23.912;2023-11-21T07:20:18;9.20;;;5.22;;
40152;SDS011;26371;56.992;23.912;2023-11-21T07:22:46;10.33;;;4.77;;
40152;SDS011;26371;56.992;23.912;2023-11-21T07:25:17;11.55;;;4.82;;
40152;SDS011;26371;56.992;23.912;2023-11-21T07:27:46;9.70;;;4.43;;
40152;SDS011;26371;56.992;23.912;2023-11-21T07:30:14;9.52;;;4.65;;
40152;SDS011;26371;56.992;23.912;2023-11-21T07:32:44;10.70;;;5.00;;
40152;SDS011;26371;56.992;23.912;2023-11-21T07:35:15;10.55;;;4.93;;
40152;SDS011;26371;56.992;23.912;2023-11-21T07:37:43;9.43;;;5.07;;
40152;SDS011;26371;56.992;23.912;2023-11-21T07:40:16;12.00;;;4.63;;
40152;SDS011;26371;56.992;23.912;2023-11-21T07:42:44;10.25;;;4.50;;
40152;SDS011;26371;56.992;23.912;2023-11-21T07:45:14;10.25;;;5.35;;
40152;SDS011;26371;56.992;23.912;2023-11-21T07:47:43;12.90;;;5.43;;
40152;SDS011;26371;56.992;23.912;2023-11-21T07:50:12;13.07;;;5.18;;
40152;SDS011;26371;56.992;23.912;2023-11-21T07:52:41;10.63;;;4.67;;
40152;SDS011;26371;56.992;23.912;2023-11-21T07:55:10;13.10;;;5.60;;
40152;SDS011;26371;56.992;23.912;2023-11-21T07:57:40;13.95;;;6.57;;
40152;SDS011;26371;56.992;23.912;2023-11-21T08:00:09;15.02;;;6.07;;
40152;SDS011;26371;56.992;23.912;2023-11-21T08:02:39;18.20;;;6.82;;
40152;SDS011;26371;56.992;23.912;2023-11-21T08:05:10;16.45;;;7.30;;
40152;SDS011;26371;56.992;23.912;2023-11-21T08:07:50;16.02;;;7.45;;
40152;SDS011;26371;56.992;23.912;2023-11-21T08:10:19;19.40;;;6.82;;
40152;SDS011;26371;56.992;23.912;2023-11-21T08:12:50;25.30;;;9.40;;
40152;SDS011;26371;56.992;23.912;2023-11-21T08:15:20;19.13;;;6.90;;
40152;SDS011;26371;56.992;23.912;2023-11-21T08:17:49;33.15;;;10.98;;
40152;SDS011;26371;56.992;23.912;2023-11-21T08:20:17;27.67;;;9.93;;
40152;SDS011;26371;56.992;23.912;2023-11-21T08:22:46;20.50;;;8.83;;
40152;SDS011;26371;56.992;23.912;2023-11-21T08:25:15;27.27;;;10.18;;
40152;SDS011;26371;56.992;23.912;2023-11-21T08:27:47;24.58;;;9.15;;
40152;SDS011;26371;56.992;23.912;2023-11-21T08:30:17;30.25;;;10.23;;
40152;SDS011;26371;56.992;23.912;2023-11-21T08:32:49;22.85;;;9.52;;
40152;SDS011;26371;56.992;23.912;2023-11-21T08:35:21;27.52;;;9.80;;
40152;SDS011;26371;56.992;23.912;2023-11-21T08:37:50;18.90;;;9.20;;
40152;SDS011;26371;56.992;23.912;2023-11-21T08:40:20;19.85;;;9.32;;
40152;SDS011;26371;56.992;23.912;2023-11-21T08:42:50;21.30;;;8.68;;
40152;SDS011;26371;56.992;23.912;2023-11-21T08:45:21;28.15;;;9.95;;
40152;SDS011;26371;56.992;23.912;2023-11-21T08:47:50;26.23;;;11.70;;
40152;SDS011;26371;56.992;23.912;2023-11-21T08:50:19;24.58;;;11.05;;
40152;SDS011;26371;56.992;23.912;2023-11-21T08:52:48;19.15;;;8.10;;
40152;SDS011;26371;56.992;23.912;2023-11-21T08:55:18;18.38;;;10.05;;
40152;SDS011;26371;56.992;23.912;2023-11-21T08:57:47;16.40;;;8.75;;
40152;SDS011;26371;56.992;23.912;2023-11-21T09:00:16;18.35;;;7.55;;
40152;SDS011;26371;56.992;23.912;2023-11-21T09:02:47;16.77;;;8.60;;
40152;SDS011;26371;56.992;23.912;2023-11-21T09:05:15;23.08;;;8.10;;
40152;SDS011;26371;56.992;23.912;2023-11-21T09:07:46;20.48;;;9.20;;
40152;SDS011;26371;56.992;23.912;2023-11-21T09:12:44;14.90;;;8.00;;
40152;SDS011;26371;56.992;23.912;2023-11-21T09:15:13;15.95;;;7.93;;
40152;SDS011;26371;56.992;23.912;2023-11-21T09:17:41;22.52;;;8.38;;
40152;SDS011;26371;56.992;23.912;2023-11-21T09:20:13;24.52;;;8.68;;
40152;SDS011;26371;56.992;23.912;2023-11-21T09:22:42;20.48;;;9.32;;
40152;SDS011;26371;56.992;23.912;2023-11-21T09:25:13;22.92;;;8.70;;
40152;SDS011;26371;56.992;23.912;2023-11-21T09:27:42;20.33;;;8.45;;
40152;SDS011;26371;56.992;23.912;2023-11-21T09:30:12;18.05;;;8.05;;
40152;SDS011;26371;56.992;23.912;2023-11-21T09:32:42;20.33;;;9.40;;
40152;SDS011;26371;56.992;23.912;2023-11-21T09:35:14;15.38;;;7.47;;
40152;SDS011;26371;56.992;23.912;2023-11-21T09:37:44;22.88;;;9.60;;
40152;SDS011;26371;56.992;23.912;2023-11-21T09:40:16;26.10;;;10.52;;
40152;SDS011;26371;56.992;23.912;2023-11-21T09:42:52;23.17;;;9.68;;
40152;SDS011;26371;56.992;23.912;2023-11-21T09:45:27;20.00;;;9.57;;
40152;SDS011;26371;56.992;23.912;2023-11-21T09:47:58;21.40;;;9.48;;
40152;SDS011;26371;56.992;23.912;2023-11-21T09:50:28;22.90;;;9.00;;
40152;SDS011;26371;56.992;23.912;2023-11-21T09:53:03;21.80;;;9.48;;
40152;SDS011;26371;56.992;23.912;2023-11-21T09:55:43;19.90;;;8.80;;
40152;SDS011;26371;56.992;23.912;2023-11-21T09:58:13;19.48;;;9.18;;
40152;SDS011;26371;56.992;23.912;2023-11-21T10:00:46;19.40;;;7.70;;
40152;SDS011;26371;56.992;23.912;2023-11-21T10:03:15;17.58;;;8.18;;
40152;SDS011;26371;56.992;23.912;2023-11-21T10:05:46;16.35;;;7.82;;
40152;SDS011;26371;56.992;23.912;2023-11-21T10:08:18;15.73;;;7.93;;
40152;SDS011;26371;56.992;23.912;2023-11-21T10:10:51;16.80;;;7.60;;
40152;SDS011;26371;56.992;23.912;2023-11-21T10:13:22;18.75;;;6.85;;
40152;SDS011;26371;56.992;23.912;2023-11-21T10:15:51;19.38;;;6.32;;
40152;SDS011;26371;56.992;23.912;2023-11-21T10:18:20;22.40;;;7.87;;
40152;SDS011;26371;56.992;23.912;2023-11-21T10:20:53;16.88;;;6.63;;
40152;SDS011;26371;56.992;23.912;2023-11-21T10:23:23;16.92;;;8.02;;
40152;SDS011;26371;56.992;23.912;2023-11-21T10:25:52;18.10;;;8.63;;
40152;SDS011;26371;56.992;23.912;2023-11-21T10:28:24;15.82;;;7.75;;
40152;SDS011;26371;56.992;23.912;2023-11-21T10:30:52;14.52;;;7.30;;
40152;SDS011;26371;56.992;23.912;2023-11-21T10:33:26;19.77;;;8.05;;
40152;SDS011;26371;56.992;23.912;2023-11-21T10:35:58;43.60;;;16.20;;
40152;SDS011;26371;56.992;23.912;2023-11-21T10:38:28;42.80;;;16.27;;
40152;SDS011;26371;56.992;23.912;2023-11-21T10:41:04;36.17;;;14.75;;
40152;SDS011;26371;56.992;23.912;2023-11-21T10:43:38;41.63;;;16.88;;
40152;SDS011;26371;56.992;23.912;2023-11-21T10:46:07;44.00;;;15.75;;
40152;SDS011;26371;56.992;23.912;2023-11-21T10:48:36;39.53;;;15.57;;
40152;SDS011;26371;56.992;23.912;2023-11-21T10:51:07;30.95;;;13.13;;
40152;SDS011;26371;56.992;23.912;2023-11-21T10:53:38;27.58;;;12.25;;
40152;SDS011;26371;56.992;23.912;2023-11-21T10:56:10;18.40;;;8.20;;
40152;SDS011;26371;56.992;23.912;2023-11-21T10:58:44;17.15;;;7.20;;
40152;SDS011;26371;56.992;23.912;2023-11-21T11:03:45;16.17;;;6.90;;
40152;SDS011;26371;56.992;23.912;2023-11-21T11:06:17;21.48;;;7.03;;
40152;SDS011;26371;56.992;23.912;2023-11-21T11:08:46;14.45;;;7.22;;
40152;SDS011;26371;56.992;23.912;2023-11-21T11:13:45;13.07;;;5.65;;
40152;SDS011;26371;56.992;23.912;2023-11-21T11:16:14;14.73;;;6.75;;
40152;SDS011;26371;56.992;23.912;2023-11-21T11:18:45;12.73;;;6.63;;
40152;SDS011;26371;56.992;23.912;2023-11-21T11:21:23;12.70;;;6.32;;
40152;SDS011;26371;56.992;23.912;2023-11-21T11:24:04;11.85;;;6.40;;
40152;SDS011;26371;56.992;23.912;2023-11-21T11:26:43;16.67;;;6.20;;
40152;SDS011;26371;56.992;23.912;2023-11-21T11:29:22;12.77;;;5.95;;
40152;SDS011;26371;56.992;23.912;2023-11-21T11:32:00;18.75;;;7.28;;
40152;SDS011;26371;56.992;23.912;2023-11-21T11:34:39;14.23;;;6.93;;
40152;SDS011;26371;56.992;23.912;2023-11-21T11:37:15;13.30;;;7.18;;
40152;SDS011;26371;56.992;23.912;2023-11-21T11:39:46;13.35;;;6.93;;
40152;SDS011;26371;56.992;23.912;2023-11-21T11:44:49;14.73;;;7.20;;
40152;SDS011;26371;56.992;23.912;2023-11-21T11:47:23;17.35;;;6.40;;
40152;SDS011;26371;56.992;23.912;2023-11-21T11:50:05;16.30;;;7.50;;
40152;SDS011;26371;56.992;23.912;2023-11-21T11:52:41;13.55;;;6.93;;
40152;SDS011;26371;56.992;23.912;2023-11-21T11:55:12;17.13;;;7.47;;
40152;SDS011;26371;56.992;23.912;2023-11-21T11:57:42;16.90;;;7.32;;
40152;SDS011;26371;56.992;23.912;2023-11-21T12:00:12;17.95;;;8.55;;
40152;SDS011;26371;56.992;23.912;2023-11-21T12:02:49;14.13;;;6.82;;
40152;SDS011;26371;56.992;23.912;2023-11-21T12:05:19;14.60;;;7.20;;
40152;SDS011;26371;56.992;23.912;2023-11-21T12:07:54;12.45;;;6.88;;
40152;SDS011;26371;56.992;23.912;2023-11-21T12:10:25;13.32;;;6.97;;
40152;SDS011;26371;56.992;23.912;2023-11-21T12:12:56;14.68;;;6.72;;
40152;SDS011;26371;56.992;23.912;2023-11-21T12:15:26;16.95;;;6.68;;
40152;SDS011;26371;56.992;23.912;2023-11-21T12:17:58;16.55;;;7.28;;
40152;SDS011;26371;56.992;23.912;2023-11-21T12:20:27;15.57;;;7.20;;
40152;SDS011;26371;56.992;23.912;2023-11-21T12:22:58;16.55;;;7.65;;
40152;SDS011;26371;56.992;23.912;2023-11-21T12:25:28;15.15;;;8.20;;
40152;SDS011;26371;56.992;23.912;2023-11-21T12:27:59;15.80;;;7.10;;
40152;SDS011;26371;56.992;23.912;2023-11-21T12:30:30;17.67;;;9.68;;
40152;SDS011;26371;56.992;23.912;2023-11-21T12:33:02;15.70;;;7.22;;
40152;SDS011;26371;56.992;23.912;2023-11-21T12:35:34;13.93;;;6.53;;
40152;SDS011;26371;56.992;23.912;2023-11-21T12:38:04;17.08;;;7.68;;
40152;SDS011;26371;56.992;23.912;2023-11-21T12:40:36;15.57;;;7.43;;
40152;SDS011;26371;56.992;23.912;2023-11-21T12:43:05;13.50;;;6.37;;
40152;SDS011;26371;56.992;23.912;2023-11-21T12:45:37;12.57;;;6.75;;
40152;SDS011;26371;56.992;23.912;2023-11-21T12:48:06;18.35;;;7.45;;
40152;SDS011;26371;56.992;23.912;2023-11-21T12:50:36;15.18;;;7.38;;
40152;SDS011;26371;56.992;23.912;2023-11-21T12:53:07;16.33;;;7.45;;
40152;SDS011;26371;56.992;23.912;2023-11-21T12:55:39;15.48;;;6.70;;
40152;SDS011;26371;56.992;23.912;2023-11-21T12:58:09;14.23;;;6.63;;
40152;SDS011;26371;56.992;23.912;2023-11-21T13:00:40;12.45;;;6.75;;
40152;SDS011;26371;56.992;23.912;2023-11-21T13:03:11;13.80;;;6.95;;
40152;SDS011;26371;56.992;23.912;2023-11-21T13:05:45;18.08;;;7.47;;
40152;SDS011;26371;56.992;23.912;2023-11-21T13:08:20;16.63;;;6.97;;
40152;SDS011;26371;56.992;23.912;2023-11-21T13:10:51;12.35;;;6.05;;
40152;SDS011;26371;56.992;23.912;2023-11-21T13:13:25;16.05;;;6.95;;
40152;SDS011;26371;56.992;23.912;2023-11-21T13:15:56;14.95;;;6.72;;
40152;SDS011;26371;56.992;23.912;2023-11-21T13:18:31;11.85;;;6.20;;
40152;SDS011;26371;56.992;23.912;2023-11-21T13:21:01;13.15;;;6.00;;
40152;SDS011;26371;56.992;23.912;2023-11-21T13:23:38;13.30;;;6.03;;
40152;SDS011;26371;56.992;23.912;2023-11-21T13:26:08;12.80;;;6.00;;
40152;SDS011;26371;56.992;23.912;2023-11-21T13:28:38;13.07;;;6.15;;
40152;SDS011;26371;56.992;23.912;2023-11-21T13:31:08;11.25;;;5.97;;
40152;SDS011;26371;56.992;23.912;2023-11-21T13:33:48;12.77;;;6.65;;
40152;SDS011;26371;56.992;23.912;2023-11-21T13:36:23;15.45;;;5.88;;
40152;SDS011;26371;56.992;23.912;2023-11-21T13:39:02;13.48;;;6.13;;
40152;SDS011;26371;56.992;23.912;2023-11-21T13:41:35;13.73;;;6.35;;
40152;SDS011;26371;56.992;23.912;2023-11-21T13:44:06;13.23;;;6.75;;
40152;SDS011;26371;56.992;23.912;2023-11-21T13:46:44;12.27;;;6.03;;
40152;SDS011;26371;56.992;23.912;2023-11-21T13:49:13;11.18;;;6.00;;
40152;SDS011;26371;56.992;23.912;2023-11-21T13:54:16;11.25;;;4.72;;
40152;SDS011;26371;56.992;23.912;2023-11-21T13:56:46;10.23;;;5.80;;
40152;SDS011;26371;56.992;23.912;2023-11-21T13:59:17;11.70;;;5.43;;
40152;SDS011;26371;56.992;23.912;2023-11-21T14:01:50;14.35;;;6.28;;
40152;SDS011;26371;56.992;23.912;2023-11-21T14:04:24;15.10;;;7.00;;
40152;SDS011;26371;56.992;23.912;2023-11-21T14:07:21;10.65;;;5.43;;
40152;SDS011;26371;56.992;23.912;2023-11-21T14:10:01;14.45;;;5.95;;
40152;SDS011;26371;56.992;23.912;2023-11-21T14:12:31;11.63;;;5.55;;
40152;SDS011;26371;56.992;23.912;2023-11-21T14:15:05;10.90;;;5.88;;
40152;SDS011;26371;56.992;23.912;2023-11-21T14:17:37;12.98;;;6.70;;
40152;SDS011;26371;56.992;23.912;2023-11-21T14:20:08;13.55;;;6.07;;
40152;SDS011;26371;56.992;23.912;2023-11-21T14:22:43;14.05;;;6.88;;
40152;SDS011;26371;56.992;23.912;2023-11-21T14:25:15;12.50;;;6.40;;
40152;SDS011;26371;56.992;23.912;2023-11-21T14:27:45;11.65;;;6.13;;
40152;SDS011;26371;56.992;23.912;2023-11-21T14:30:14;15.63;;;6.47;;
40152;SDS011;26371;56.992;23.912;2023-11-21T14:32:45;14.00;;;6.85;;
40152;SDS011;26371;56.992;23.912;2023-11-21T14:35:15;14.07;;;7.18;;
40152;SDS011;26371;56.992;23.912;2023-11-21T14:37:44;12.25;;;6.60;;
40152;SDS011;26371;56.992;23.912;2023-11-21T14:40:14;19.80;;;7.43;;
40152;SDS011;26371;56.992;23.912;2023-11-21T14:42:44;17.50;;;8.45;;
40152;SDS011;26371;56.992;23.912;2023-11-21T14:45:14;20.10;;;9.55;;
40152;SDS011;26371;56.992;23.912;2023-11-21T14:47:46;19.35;;;8.50;;
40152;SDS011;26371;56.992;23.912;2023-11-21T14:50:24;15.57;;;8.18;;
40152;SDS011;26371;56.992;23.912;2023-11-21T14:53:18;18.50;;;8.30;;
40152;SDS011;26371;56.992;23.912;2023-11-21T14:56:10;25.55;;;9.63;;
40152;SDS011;26371;56.992;23.912;2023-11-21T14:58:43;22.98;;;9.50;;